createdAt,value
2018-08-13T00:00:07.090Z,63.87
2018-08-13T00:02:35.727Z,64.67
2018-08-13T00:05:04.878Z,64.52
2018-08-13T00:07:33.501Z,64.47
2018-08-13T00:10:05.141Z,65.12
2018-08-13T00:12:33.796Z,65.13
2018-08-13T00:15:02.426Z,64.58
2018-08-13T00:17:31.194Z,65.77
2018-08-13T00:19:59.810Z,66.03
2018-08-13T00:22:28.546Z,65.78
2018-08-13T00:25:28.056Z,65.96
2018-08-13T00:27:56.704Z,66.37
2018-08-13T00:30:25.373Z,65.62
2018-08-13T00:32:54.064Z,66.16
2018-08-13T00:35:22.703Z,66.70
2018-08-13T00:37:51.340Z,66.88
2018-08-13T00:40:20.220Z,67.20
2018-08-13T00:42:48.884Z,67.41
2018-08-13T00:45:17.584Z,67.39
2018-08-13T00:47:46.177Z,67.06
2018-08-13T00:50:15.988Z,66.53
2018-08-13T00:52:45.188Z,67.42
2018-08-13T00:55:14.990Z,67.01
2018-08-13T00:57:43.670Z,67.32
2018-08-13T01:00:15.666Z,67.37
2018-08-13T01:02:45.049Z,67.90
2018-08-13T01:05:14.306Z,67.79
2018-08-13T01:07:42.957Z,68.54
2018-08-13T01:10:14.156Z,68.32
2018-08-13T01:12:43.187Z,68.00
2018-08-13T01:15:13.685Z,67.64
2018-08-13T01:17:44.178Z,67.67
2018-08-13T01:20:14.343Z,67.81
2018-08-13T01:22:43.053Z,67.73
2018-08-13T01:25:14.687Z,68.17
2018-08-13T01:27:44.071Z,68.57
2018-08-13T01:30:14.617Z,68.10
2018-08-13T01:32:43.353Z,67.70
2018-08-13T01:35:12.035Z,68.08
2018-08-13T01:37:40.663Z,68.26
2018-08-13T01:40:10.578Z,67.74
2018-08-13T01:42:39.319Z,67.56
2018-08-13T01:45:10.890Z,68.04
2018-08-13T01:47:39.999Z,67.62
2018-08-13T01:50:10.297Z,67.52
2018-08-13T01:52:38.921Z,68.33
2018-08-13T01:55:08.836Z,67.90
2018-08-13T01:57:37.553Z,68.00
2018-08-13T02:00:09.559Z,68.23
2018-08-13T02:02:38.319Z,68.13
2018-08-13T02:05:07.243Z,68.60
2018-08-13T02:07:36.230Z,68.74
2018-08-13T02:10:05.559Z,68.84
2018-08-13T02:12:34.260Z,68.98
2018-08-13T02:15:03.004Z,68.97
2018-08-13T02:17:31.689Z,69.69
2018-08-13T02:20:00.354Z,69.43
2018-08-13T02:22:29.023Z,69.66
2018-08-13T02:24:58.032Z,70.25
2018-08-13T02:27:26.728Z,70.27
2018-08-13T02:29:55.434Z,70.45
2018-08-13T02:32:24.065Z,70.02
2018-08-13T02:34:52.754Z,70.46
2018-08-13T02:37:21.398Z,69.94
2018-08-13T02:39:50.082Z,70.64
2018-08-13T02:42:18.790Z,70.30
2018-08-13T02:44:47.510Z,70.58
2018-08-13T02:47:16.217Z,70.63
2018-08-13T02:49:44.875Z,70.53
2018-08-13T02:52:13.558Z,70.68
2018-08-13T02:54:42.175Z,70.58
2018-08-13T02:57:10.830Z,70.75
2018-08-13T02:59:39.584Z,70.91
2018-08-13T03:02:08.291Z,70.88
2018-08-13T03:04:37.028Z,70.45
2018-08-13T03:07:05.736Z,70.94
2018-08-13T03:09:34.425Z,71.12
2018-08-13T03:12:03.126Z,70.68
2018-08-13T03:14:32.110Z,71.23
2018-08-13T03:17:00.734Z,70.94
2018-08-13T03:19:29.447Z,70.94
2018-08-13T03:21:58.174Z,70.99
2018-08-13T03:24:26.903Z,70.76
2018-08-13T03:26:55.585Z,71.68
2018-08-13T03:29:24.269Z,71.21
2018-08-13T03:31:52.958Z,71.31
2018-08-13T03:34:21.650Z,71.56
2018-08-13T03:36:50.370Z,71.11
2018-08-13T03:39:19.058Z,70.82
2018-08-13T03:41:47.686Z,70.90
2018-08-13T03:44:16.322Z,71.25
2018-08-13T03:46:44.963Z,71.24
2018-08-13T03:49:13.702Z,71.52
2018-08-13T03:58:34.336Z,72.16
2018-08-13T04:01:09.979Z,72.32
2018-08-13T04:03:38.671Z,71.71
2018-08-13T04:06:07.393Z,71.83
2018-08-13T04:08:36.123Z,71.50
2018-08-13T04:11:04.818Z,71.88
2018-08-13T04:13:33.506Z,71.51
2018-08-13T04:16:02.232Z,71.48
2018-08-13T04:18:30.912Z,71.73
2018-08-13T04:20:59.590Z,71.18
2018-08-13T04:23:28.281Z,71.64
2018-08-13T04:25:56.937Z,71.16
2018-08-13T04:28:25.659Z,71.22
2018-08-13T04:30:54.379Z,71.16
2018-08-13T04:33:23.042Z,70.77
2018-08-13T04:35:51.703Z,70.49
2018-08-13T04:38:20.385Z,70.76
2018-08-13T04:40:49.091Z,71.16
2018-08-13T04:43:17.745Z,70.64
2018-08-13T04:45:46.441Z,69.96
2018-08-13T04:48:15.079Z,70.54
2018-08-13T04:50:43.718Z,70.52
2018-08-13T05:05:59.327Z,67.62
2018-08-13T05:08:28.009Z,67.84
2018-08-13T05:10:56.715Z,67.31
2018-08-13T05:13:25.361Z,66.99
2018-08-13T05:15:54.010Z,67.25
2018-08-13T05:18:22.639Z,66.20
2018-08-13T05:20:51.286Z,66.79
2018-08-13T05:23:19.917Z,66.78
2018-08-13T05:25:48.579Z,66.42
2018-08-13T05:28:17.224Z,66.46
2018-08-13T05:30:45.981Z,65.88
2018-08-13T05:33:14.645Z,66.07
2018-08-13T05:35:43.321Z,66.06
2018-08-13T05:38:12.029Z,65.92
2018-08-13T05:40:40.695Z,65.49
2018-08-13T05:43:09.401Z,65.65
2018-08-13T05:45:38.118Z,65.18
2018-08-13T05:48:06.941Z,65.16
2018-08-13T05:50:35.650Z,65.45
2018-08-13T05:53:04.500Z,65.41
2018-08-13T05:55:33.112Z,64.50
2018-08-13T05:58:01.871Z,64.99
2018-08-13T06:00:30.592Z,64.85
2018-08-13T06:02:59.260Z,64.68
2018-08-13T06:05:27.889Z,64.27
2018-08-13T06:07:56.576Z,64.09
2018-08-13T06:10:25.206Z,63.68
2018-08-13T06:12:53.891Z,63.86
2018-08-13T06:15:22.679Z,63.51
2018-08-13T06:17:51.353Z,62.50
2018-08-13T06:20:20.090Z,62.93
2018-08-13T06:22:48.777Z,62.50
2018-08-13T06:25:17.464Z,62.29
2018-08-13T06:27:46.189Z,62.21
2018-08-13T06:30:16.322Z,62.64
2018-08-13T06:32:45.156Z,61.77
2018-08-13T06:35:14.443Z,62.23
2018-08-13T06:37:44.144Z,62.06
2018-08-13T06:40:13.367Z,61.18
2018-08-13T06:42:42.264Z,60.98
2018-08-13T06:45:11.508Z,61.36
2018-08-13T06:47:40.739Z,61.07
2018-08-13T06:50:11.802Z,61.86
2018-08-13T06:52:40.539Z,61.32
2018-08-13T06:55:09.681Z,61.00
2018-08-13T06:57:38.335Z,61.54
2018-08-13T07:00:08.809Z,61.02
2018-08-13T07:02:37.634Z,60.75
2018-08-13T07:05:07.730Z,60.46
2018-08-13T07:07:36.639Z,60.52
2018-08-13T07:10:10.002Z,60.65
2018-08-13T07:12:39.433Z,60.36
2018-08-13T07:15:08.543Z,59.05
2018-08-13T07:17:37.580Z,59.60
2018-08-13T07:20:08.336Z,58.82
2018-08-13T07:22:36.997Z,58.77
2018-08-13T07:25:06.864Z,58.48
2018-08-13T07:27:35.510Z,59.17
2018-08-13T07:30:06.364Z,57.96
2018-08-13T07:32:35.061Z,57.92
2018-08-13T07:35:03.897Z,57.93
2018-08-13T07:37:32.790Z,58.31
2018-08-13T07:40:01.647Z,57.64
2018-08-13T07:42:30.884Z,58.50
2018-08-13T07:44:59.497Z,57.42
2018-08-13T07:47:28.199Z,57.56
2018-08-13T07:49:57.019Z,57.49
2018-08-13T07:52:25.742Z,56.91
2018-08-13T07:54:54.410Z,57.17
2018-08-13T07:57:23.199Z,57.05
2018-08-13T07:59:51.935Z,58.31
2018-08-13T08:02:20.657Z,56.24
2018-08-13T08:04:49.314Z,56.14
2018-08-13T08:07:18.038Z,55.98
2018-08-13T08:09:46.679Z,55.15
2018-08-13T08:12:15.464Z,55.52
2018-08-13T08:14:44.197Z,55.15
2018-08-13T08:17:12.770Z,54.77
2018-08-13T08:19:41.457Z,53.31
2018-08-13T08:22:10.172Z,53.06
2018-08-13T08:24:38.879Z,54.33
2018-08-13T08:27:08.145Z,53.18
2018-08-13T08:29:36.922Z,54.68
2018-08-13T08:32:05.641Z,53.33
2018-08-13T08:34:34.313Z,52.73
2018-08-13T08:37:02.970Z,53.03
2018-08-13T08:39:31.637Z,53.30
2018-08-13T08:42:00.319Z,51.61
2018-08-13T08:44:29.630Z,52.25
2018-08-13T08:46:58.296Z,51.99
2018-08-13T08:49:26.998Z,51.18
2018-08-13T08:51:55.628Z,49.00
2018-08-13T08:54:24.244Z,49.02
2018-08-13T08:56:52.935Z,48.78
2018-08-13T08:59:21.532Z,51.49
2018-08-13T09:01:50.214Z,46.18
2018-08-13T09:04:18.813Z,47.63
2018-08-13T09:06:47.500Z,48.33
2018-08-13T09:09:16.154Z,47.16
2018-08-13T09:11:44.835Z,46.52
2018-08-13T09:14:13.575Z,46.06
2018-08-13T09:16:44.650Z,43.97
2018-08-13T09:19:24.295Z,44.93
2018-08-13T09:21:57.274Z,43.69
2018-08-13T09:24:37.100Z,42.84
2018-08-13T09:27:16.794Z,42.70
2018-08-13T09:30:54.290Z,43.06
2018-08-13T09:33:34.146Z,41.51
2018-08-13T09:36:02.795Z,42.95
2018-08-13T09:38:31.501Z,43.69
2018-08-13T09:41:00.192Z,42.65
2018-08-13T09:43:28.798Z,44.07
2018-08-13T09:45:57.458Z,42.59
2018-08-13T09:48:26.826Z,41.69
2018-08-13T09:50:55.686Z,42.48
2018-08-13T09:53:24.339Z,42.81
2018-08-13T09:55:53.691Z,43.76
2018-08-13T09:58:22.471Z,43.73
2018-08-13T10:01:11.824Z,43.00
2018-08-13T10:03:40.861Z,44.42
2018-08-13T10:06:09.642Z,43.08
2018-08-13T10:08:38.321Z,43.52
2018-08-13T10:11:06.997Z,42.42
2018-08-13T10:13:35.638Z,42.78
2018-08-13T10:16:04.296Z,43.50
2018-08-13T10:18:32.945Z,42.46
2018-08-13T10:21:01.655Z,42.83
2018-08-13T10:23:30.342Z,42.64
2018-08-13T10:25:58.992Z,42.77
2018-08-13T10:28:27.603Z,40.21
2018-08-13T10:30:56.240Z,40.90
2018-08-13T10:33:24.884Z,40.26
2018-08-13T10:35:53.528Z,42.16
2018-08-13T10:38:22.291Z,42.21
2018-08-13T10:40:51.199Z,40.36
2018-08-13T10:43:19.860Z,38.85
2018-08-13T10:45:48.578Z,38.08
2018-08-13T10:48:17.200Z,37.49
2018-08-13T10:50:45.858Z,37.75
2018-08-13T10:53:14.549Z,37.14
2018-08-13T10:55:43.245Z,36.22
2018-08-13T10:58:11.919Z,35.60
2018-08-13T11:00:40.557Z,34.62
2018-08-13T11:03:09.286Z,34.82
2018-08-13T11:05:37.975Z,34.28
2018-08-13T11:08:06.620Z,33.41
2018-08-13T11:10:35.251Z,33.90
2018-08-13T11:13:03.929Z,32.75
2018-08-13T11:15:32.578Z,32.85
2018-08-13T11:18:01.290Z,32.63
2018-08-13T11:20:29.937Z,32.05
2018-08-13T11:22:58.599Z,33.16
2018-08-13T11:25:27.245Z,30.95
2018-08-13T11:27:55.934Z,31.51
2018-08-13T11:30:24.595Z,31.93
2018-08-13T11:32:53.272Z,30.14
2018-08-13T11:35:21.935Z,30.10
2018-08-13T11:37:50.614Z,30.33
2018-08-13T11:40:19.347Z,30.98
2018-08-13T11:42:48.091Z,30.99
2018-08-13T11:45:16.743Z,30.15
2018-08-13T11:47:45.441Z,29.87
2018-08-13T11:50:16.409Z,28.90
2018-08-13T11:52:46.862Z,29.94
2018-08-13T11:55:16.150Z,30.64
2018-08-13T11:57:44.975Z,29.48
2018-08-13T12:00:14.014Z,28.93
2018-08-13T12:02:42.887Z,29.19
2018-08-13T12:05:13.139Z,28.64
2018-08-13T12:07:42.383Z,29.10
2018-08-13T12:10:12.060Z,28.32
2018-08-13T12:12:41.645Z,28.47
2018-08-13T12:15:11.486Z,27.82
2018-08-13T12:17:40.484Z,27.87
2018-08-13T12:20:15.096Z,29.05
2018-08-13T12:22:44.313Z,28.82
2018-08-13T12:25:17.238Z,28.79
2018-08-13T12:27:46.012Z,28.56
2018-08-13T12:30:14.639Z,28.54
2018-08-13T12:32:43.280Z,27.93
2018-08-13T12:35:11.972Z,29.16
2018-08-13T12:37:40.639Z,29.53
2018-08-13T12:40:10.515Z,29.71
2018-08-13T12:42:39.880Z,29.28
2018-08-13T12:45:12.987Z,28.76
2018-08-13T12:47:41.997Z,27.63
2018-08-13T12:50:16.405Z,28.67
2018-08-13T12:52:46.115Z,29.17
2018-08-13T12:55:15.135Z,28.33
2018-08-13T12:57:44.036Z,29.00
2018-08-13T13:00:14.115Z,29.18
2018-08-13T13:02:43.240Z,28.15
2018-08-13T13:05:13.358Z,27.46
2018-08-13T13:07:42.024Z,27.78
2018-08-13T13:10:12.962Z,28.14
2018-08-13T13:12:42.088Z,28.34
2018-08-13T13:15:13.980Z,28.05
2018-08-13T13:17:42.746Z,29.64
2018-08-13T13:20:17.590Z,27.45
2018-08-13T13:22:46.575Z,27.54
2018-08-13T13:25:15.609Z,29.48
2018-08-13T13:27:44.252Z,28.02
2018-08-13T13:30:14.613Z,26.79
2018-08-13T13:32:43.615Z,27.35
2018-08-13T13:35:14.123Z,26.37
2018-08-13T13:37:43.377Z,27.83
2018-08-13T13:40:15.006Z,26.92
2018-08-13T13:42:44.178Z,26.66
2018-08-13T13:45:13.446Z,27.86
2018-08-13T13:47:42.154Z,28.28
2018-08-13T13:50:13.027Z,28.60
2018-08-13T13:52:41.886Z,27.60
2018-08-13T13:55:10.644Z,28.82
2018-08-13T13:57:39.343Z,26.56
2018-08-13T14:00:11.934Z,27.46
2018-08-13T14:02:40.599Z,27.03
2018-08-13T14:05:09.266Z,28.02
2018-08-13T14:07:37.956Z,27.55
2018-08-13T14:10:07.798Z,27.11
2018-08-13T14:12:36.487Z,26.03
2018-08-13T14:15:06.444Z,26.36
2018-08-13T14:17:35.023Z,26.97
2018-08-13T14:20:03.740Z,26.09
2018-08-13T14:22:32.341Z,25.56
2018-08-13T14:25:01.071Z,26.68
2018-08-13T14:27:29.719Z,27.27
2018-08-13T14:29:58.380Z,26.68
2018-08-13T14:32:27.026Z,26.80
2018-08-13T14:34:55.693Z,27.24
2018-08-13T14:37:24.388Z,26.29
2018-08-13T14:39:53.086Z,26.82
2018-08-13T14:42:21.867Z,27.07
2018-08-13T14:44:50.462Z,27.62
2018-08-13T14:47:19.092Z,27.33
2018-08-13T14:49:47.737Z,27.19
2018-08-13T14:52:16.368Z,25.96
2018-08-13T14:54:44.974Z,26.24
2018-08-13T14:57:13.683Z,26.74
2018-08-13T14:59:42.512Z,26.58
2018-08-13T15:02:11.215Z,25.65
2018-08-13T15:04:39.855Z,27.33
2018-08-13T15:07:08.634Z,26.27
2018-08-13T15:09:37.282Z,26.81
2018-08-13T15:12:06.044Z,27.42
2018-08-13T15:14:34.750Z,27.86
2018-08-13T15:17:03.427Z,27.63
2018-08-13T15:19:32.090Z,27.19
2018-08-13T15:22:00.746Z,26.33
2018-08-13T15:24:29.463Z,27.11
2018-08-13T15:26:58.120Z,28.15
2018-08-13T15:29:26.768Z,27.29
2018-08-13T15:31:55.418Z,27.81
2018-08-13T15:34:24.084Z,27.58
2018-08-13T15:36:52.786Z,27.00
2018-08-13T15:39:21.448Z,28.47
2018-08-13T15:41:50.116Z,26.45
2018-08-13T15:44:18.734Z,27.50
2018-08-13T15:46:47.399Z,27.77
2018-08-13T15:49:16.087Z,27.54
2018-08-13T15:51:44.725Z,27.57
2018-08-13T15:54:13.353Z,28.04
2018-08-13T15:56:41.955Z,28.89
2018-08-13T15:59:10.695Z,28.00
2018-08-13T16:01:39.525Z,28.54
2018-08-13T16:04:08.477Z,28.73
2018-08-13T16:06:37.189Z,29.03
2018-08-13T16:09:06.978Z,28.59
2018-08-13T16:11:35.703Z,28.32
2018-08-13T16:14:04.679Z,28.35
2018-08-13T16:16:33.300Z,28.97
2018-08-13T16:19:02.020Z,30.16
2018-08-13T16:21:30.711Z,28.75
2018-08-13T16:23:59.431Z,29.58
2018-08-13T16:26:28.057Z,30.31
2018-08-13T16:28:56.675Z,29.61
2018-08-13T16:31:25.380Z,30.60
2018-08-13T16:33:54.046Z,30.95
2018-08-13T16:36:22.687Z,31.29
2018-08-13T16:38:51.343Z,30.91
2018-08-13T16:41:20.007Z,32.19
2018-08-13T16:43:48.647Z,31.04
2018-08-13T16:46:17.318Z,31.21
2018-08-13T16:48:46.015Z,31.91
2018-08-13T16:51:14.943Z,32.27
2018-08-13T16:53:44.669Z,32.13
2018-08-13T16:56:13.725Z,32.86
2018-08-13T16:58:51.287Z,33.18
2018-08-13T17:01:20.030Z,33.89
2018-08-13T17:03:48.675Z,35.00
2018-08-13T17:06:17.650Z,34.33
2018-08-13T17:08:46.328Z,34.71
2018-08-13T17:11:15.006Z,35.78
2018-08-13T17:13:44.158Z,36.52
2018-08-13T17:16:12.796Z,36.27
2018-08-13T17:18:41.493Z,36.55
2018-08-13T17:21:10.348Z,37.04
2018-08-13T17:23:39.018Z,37.66
2018-08-13T17:26:07.765Z,38.45
2018-08-13T17:28:36.466Z,39.55
2018-08-13T17:31:05.209Z,40.44
2018-08-13T17:33:33.875Z,40.60
2018-08-13T17:36:02.649Z,40.34
2018-08-13T17:38:31.290Z,40.47
2018-08-13T17:41:00.074Z,40.72
2018-08-13T17:43:28.798Z,41.87
2018-08-13T17:45:57.519Z,41.29
2018-08-13T17:48:26.091Z,42.37
2018-08-13T17:50:54.699Z,41.65
2018-08-13T17:53:23.434Z,42.52
2018-08-13T17:55:52.784Z,41.66
2018-08-13T17:58:21.711Z,42.02
2018-08-13T18:00:50.383Z,43.49
2018-08-13T18:03:19.266Z,42.34
2018-08-13T18:05:48.014Z,43.49
2018-08-13T18:08:16.686Z,44.78
2018-08-13T18:10:45.373Z,43.28
2018-08-13T18:13:14.123Z,45.29
2018-08-13T18:18:14.499Z,46.48
2018-08-13T18:20:43.172Z,46.81
2018-08-13T18:23:11.826Z,46.70
2018-08-13T18:25:40.530Z,45.17
2018-08-13T18:28:09.310Z,46.27
2018-08-13T18:30:37.935Z,46.10
2018-08-13T18:33:07.071Z,46.12
2018-08-13T18:35:35.739Z,45.84
2018-08-13T18:38:05.133Z,45.88
2018-08-13T18:40:34.758Z,46.83
2018-08-13T18:43:03.496Z,46.33
2018-08-13T18:45:32.188Z,46.87
2018-08-13T18:48:01.098Z,47.68
2018-08-13T18:50:29.789Z,47.14
2018-08-13T18:52:58.539Z,47.66
2018-08-13T18:55:27.924Z,47.50
2018-08-13T18:57:57.690Z,46.96
2018-08-13T19:00:29.242Z,48.31
2018-08-13T19:02:59.301Z,47.90
2018-08-13T19:05:29.236Z,47.67
2018-08-13T19:07:58.003Z,48.29
2018-08-13T19:10:26.679Z,47.28
2018-08-13T19:12:55.301Z,47.88
2018-08-13T19:15:26.462Z,47.35
2018-08-13T19:17:55.288Z,48.93
2018-08-13T19:20:24.582Z,47.25
2018-08-13T19:22:53.379Z,49.43
2018-08-13T19:25:23.749Z,48.98
2018-08-13T19:27:52.586Z,49.46
2018-08-13T19:30:22.299Z,47.50
2018-08-13T19:32:51.619Z,48.13
2018-08-13T19:35:20.328Z,46.18
2018-08-13T19:37:56.977Z,46.82
2018-08-13T19:40:26.557Z,47.09
2018-08-13T19:42:55.321Z,46.07
2018-08-13T19:45:25.135Z,45.88
2018-08-13T19:47:54.279Z,46.47
2018-08-13T19:50:22.997Z,46.37
2018-08-13T19:52:57.278Z,45.91
2018-08-13T19:58:34.374Z,45.43
2018-08-13T20:01:03.081Z,45.07
2018-08-13T20:03:31.767Z,45.16
2018-08-13T20:06:00.470Z,45.27
2018-08-13T20:08:29.175Z,44.96
2018-08-13T20:10:57.875Z,45.13
2018-08-13T20:13:26.700Z,46.10
2018-08-13T20:15:55.400Z,47.03
2018-08-13T20:18:24.067Z,46.22
2018-08-13T20:20:53.082Z,46.42
2018-08-13T20:23:21.802Z,47.12
2018-08-13T20:25:50.565Z,46.46
2018-08-13T20:28:19.332Z,46.55
2018-08-13T20:30:48.035Z,47.37
2018-08-13T20:33:16.742Z,46.95
2018-08-13T20:35:45.492Z,47.30
2018-08-13T20:38:14.190Z,47.01
2018-08-13T20:40:43.244Z,47.39
2018-08-13T20:43:11.926Z,46.66
2018-08-13T20:45:40.655Z,46.96
2018-08-13T20:48:09.369Z,47.20
2018-08-13T20:50:38.203Z,47.10
2018-08-13T20:53:07.021Z,47.41
2018-08-13T20:55:36.525Z,47.13
2018-08-13T20:58:05.206Z,47.33
2018-08-13T21:00:37.226Z,47.11
2018-08-13T21:03:05.975Z,47.28
2018-08-13T21:05:34.715Z,47.17
2018-08-13T21:08:03.471Z,46.37
2018-08-13T21:10:32.186Z,46.85
2018-08-13T21:13:00.867Z,46.82
2018-08-13T21:15:29.586Z,47.64
2018-08-13T21:18:04.430Z,47.03
2018-08-13T21:20:33.140Z,47.26
2018-08-13T21:23:01.986Z,46.47
2018-08-13T21:25:30.752Z,46.85
2018-08-13T21:27:59.437Z,47.14
2018-08-13T21:30:28.195Z,46.58
2018-08-13T21:32:56.887Z,47.25
2018-08-13T21:35:26.250Z,46.98
2018-08-13T21:37:54.994Z,46.80
2018-08-13T21:40:23.753Z,47.08
2018-08-13T21:42:53.610Z,46.78
2018-08-13T21:45:22.376Z,46.77
2018-08-13T21:47:51.083Z,47.02
2018-08-13T21:50:23.312Z,47.08
2018-08-13T21:52:52.779Z,47.01
2018-08-13T21:55:21.525Z,47.00
2018-08-13T21:57:50.507Z,46.96
2018-08-13T22:00:29.742Z,47.08
2018-08-13T22:03:01.045Z,46.84
2018-08-13T22:05:29.765Z,46.74
2018-08-13T22:08:00.076Z,47.40
2018-08-13T22:10:29.165Z,46.57
2018-08-13T22:12:57.969Z,46.96
2018-08-13T22:15:28.853Z,46.99
2018-08-13T22:17:59.331Z,47.51
2018-08-13T22:20:28.811Z,47.19
2018-08-13T22:22:58.899Z,47.76
2018-08-13T22:25:45.973Z,47.38
2018-08-13T22:28:16.405Z,48.73
2018-08-13T22:30:45.353Z,47.52
2018-08-13T22:33:14.155Z,48.03
2018-08-13T22:35:42.846Z,48.09
2018-08-13T22:38:11.650Z,48.32
2018-08-13T22:40:40.972Z,48.06
2018-08-13T22:43:10.316Z,48.29
2018-08-13T22:45:39.010Z,47.95
2018-08-13T22:48:07.700Z,48.17
2018-08-13T22:50:36.429Z,48.03
2018-08-13T22:53:05.185Z,48.27
2018-08-13T22:55:33.924Z,48.11
2018-08-13T22:58:02.729Z,48.13
2018-08-13T23:00:31.408Z,48.22
2018-08-13T23:03:00.155Z,48.57
2018-08-13T23:05:29.424Z,48.36
2018-08-13T23:07:58.081Z,48.72
2018-08-13T23:10:26.753Z,48.96
2018-08-13T23:12:56.776Z,49.43
2018-08-13T23:15:25.679Z,49.72
2018-08-13T23:17:54.747Z,50.02
2018-08-13T23:20:25.687Z,50.15
2018-08-13T23:22:58.393Z,50.33
2018-08-13T23:25:27.665Z,50.30
2018-08-13T23:27:57.480Z,50.22
2018-08-13T23:30:26.298Z,50.66
2018-08-13T23:32:55.780Z,50.50
2018-08-13T23:35:25.175Z,50.22
2018-08-13T23:37:54.072Z,50.37
2018-08-13T23:40:23.169Z,50.40
2018-08-13T23:42:51.893Z,50.52
2018-08-13T23:45:21.680Z,50.92
2018-08-13T23:47:50.370Z,51.64
2018-08-13T23:50:20.914Z,51.93
2018-08-13T23:52:51.048Z,51.39
2018-08-13T23:55:26.800Z,51.33
2018-08-13T23:57:56.114Z,52.00
